Jenkinsville, South Carolina
Current Conditions -  °F | °C
As of 7:55 AM on Monday 22 Dec 2014 (Local Time) from KFDW Reporting Station
Haze Haze  
Wind Chill:   Ceiling: 300
Heat Index:   Visibility: 5mi
Dew Point:   Wind: 8mph
Humidity: 100%   Direction: 40°NE
Pressure: 30.08"   Gusts: NA
Location:  34.27°N, 81.29°W
Report Text: KFDW 221255Z AUTO 04007KT 5SM BR OVC003 05/05 A3008 RMK AO1
Loading
Personal Weather Stations






























Interactive Weather Map New forecast layout! Learn more

10-Day Weather Forecast

Advertisements
Track Severe Weather on mobile